Time;durP1;ratioP1;P1;durP2;ratioP2;P2;SDS_P1;SDS_P2;PMS_P1;PMS_P2;Temp;Humidity;BMP_temperature;BMP_pressure;BME280_temperature;BME280_humidity;BME280_pressure;Samples;Min_cycle;Max_cycle;Signal;HPM_P1;HPM_P2
2022/08/29 00:00:44;;;;;;;22.38;3.60;;;;;;;-144.43;100.00;67396.00;5092553;28;20432;-63
2022/08/29 00:03:11;;;;;;;19.85;3.40;;;;;;;-144.43;100.00;67396.00;5092119;28;20024;-66
2022/08/29 00:05:38;;;;;;;16.65;2.58;;;;;;;-144.43;100.00;67396.00;5092789;28;20040;-66
2022/08/29 00:08:05;;;;;;;25.92;2.67;;;;;;;-144.43;100.00;67396.00;5093145;28;20036;-68
2022/08/29 00:10:34;;;;;;;19.83;2.78;;;;;;;-144.43;100.00;67396.00;5093401;28;20493;-66
2022/08/29 00:13:00;;;;;;;20.58;3.15;;;;;;;-144.43;100.00;67396.00;5093472;28;20122;-65
2022/08/29 00:15:28;;;;;;;14.55;2.60;;;;;;;-144.43;100.00;67396.00;5092868;28;20466;-65
2022/08/29 00:17:54;;;;;;;13.82;2.63;;;;;;;-144.43;100.00;67396.00;5093138;28;20022;-67
2022/08/29 00:20:25;;;;;;;25.67;3.03;;;;;;;-144.43;100.00;67396.00;5092955;28;20414;-64
2022/08/29 00:22:52;;;;;;;17.17;2.75;;;;;;;-144.43;100.00;67396.00;5093422;28;20028;-64
2022/08/29 00:25:19;;;;;;;17.00;2.88;;;;;;;-144.43;100.00;67396.00;5100845;28;20024;-64
2022/08/29 00:27:46;;;;;;;16.95;2.60;;;;;;;-144.43;100.00;67396.00;5113520;28;20096;-65
2022/08/29 00:30:14;;;;;;;12.25;2.40;;;;;;;-144.43;100.00;67396.00;5100919;28;20020;-65
2022/08/29 00:32:41;;;;;;;18.88;2.50;;;;;;;-144.43;100.00;67396.00;5091019;28;20028;-64
2022/08/29 00:35:13;;;;;;;19.95;2.92;;;;;;;-144.43;100.00;67396.00;5091450;28;20069;-64
2022/08/29 00:37:40;;;;;;;17.08;2.97;;;;;;;-144.43;100.00;67396.00;5090343;28;20069;-66
2022/08/29 00:40:10;;;;;;;18.48;3.20;;;;;;;-144.43;100.00;67396.00;5092856;28;20047;-66
2022/08/29 00:42:37;;;;;;;27.92;3.40;;;;;;;-144.43;100.00;67396.00;5092752;28;20039;-65
2022/08/29 00:45:07;;;;;;;20.35;2.95;;;;;;;-144.43;100.00;67396.00;5092572;28;20024;-69
2022/08/29 00:47:37;;;;;;;24.73;3.30;;;;;;;-144.43;100.00;67396.00;5092603;28;20063;-64
2022/08/29 00:50:07;;;;;;;26.67;3.78;;;;;;;-144.43;100.00;67396.00;5089538;28;20501;-66
2022/08/29 00:52:39;;;;;;;16.20;2.75;;;;;;;-144.43;100.00;67396.00;5091848;28;20098;-66
2022/08/29 00:55:12;;;;;;;24.42;3.92;;;;;;;-144.43;100.00;67396.00;5090195;28;20036;-70
2022/08/29 00:57:43;;;;;;;25.02;3.50;;;;;;;-144.43;100.00;67396.00;5089042;28;20115;-66
2022/08/29 01:00:13;;;;;;;23.65;3.40;;;;;;;-144.43;100.00;67396.00;5092304;28;20059;-65
2022/08/29 01:02:41;;;;;;;23.50;3.83;;;;;;;-144.43;100.00;67396.00;5092351;28;20024;-64
2022/08/29 01:05:10;;;;;;;24.63;3.80;;;;;;;-144.43;100.00;67396.00;5091753;28;20024;-66
2022/08/29 01:07:38;;;;;;;21.55;3.80;;;;;;;-144.43;100.00;67396.00;5092320;28;20058;-65
2022/08/29 01:10:06;;;;;;;19.95;3.45;;;;;;;-144.43;100.00;67396.00;5091430;28;20115;-63
2022/08/29 01:12:35;;;;;;;43.67;4.72;;;;;;;-144.43;100.00;67396.00;5091247;28;20410;-64
2022/08/29 01:15:08;;;;;;;23.90;3.70;;;;;;;-144.43;100.00;67396.00;5092080;28;20024;-64
2022/08/29 01:17:45;;;;;;;33.40;3.70;;;;;;;-144.43;100.00;67396.00;5091548;28;20035;-63
2022/08/29 01:20:39;;;;;;;20.17;3.55;;;;;;;-144.43;100.00;67396.00;5091340;28;20032;-64
2022/08/29 01:23:43;;;;;;;21.35;2.95;;;;;;;-144.43;100.00;67396.00;5072616;28;20137;-61
2022/08/29 01:26:11;;;;;;;26.80;3.42;;;;;;;-144.43;100.00;67396.00;5091380;28;20043;-62
2022/08/29 01:28:42;;;;;;;18.52;2.65;;;;;;;-144.43;100.00;67396.00;5091651;28;20027;-63
2022/08/29 01:31:15;;;;;;;18.42;3.10;;;;;;;-144.43;100.00;67396.00;5089909;28;20082;-63
2022/08/29 01:33:48;;;;;;;22.30;2.67;;;;;;;-144.43;100.00;67396.00;5092018;28;20032;-63
2022/08/29 01:36:18;;;;;;;16.50;3.30;;;;;;;-144.43;100.00;67396.00;5091429;28;20036;-63
2022/08/29 01:38:45;;;;;;;20.00;2.85;;;;;;;-144.43;100.00;67396.00;5090497;28;20046;-66
2022/08/29 01:41:12;;;;;;;23.45;3.40;;;;;;;-144.43;100.00;67396.00;5091897;28;20036;-63
2022/08/29 01:43:43;;;;;;;18.40;3.20;;;;;;;-144.43;100.00;67396.00;5090351;28;20028;-65
2022/08/29 01:46:13;;;;;;;18.77;2.47;;;;;;;-144.43;100.00;67396.00;5091818;28;20024;-64
2022/08/29 01:48:43;;;;;;;15.60;2.40;;;;;;;-144.43;100.00;67396.00;5092151;28;20059;-62
2022/08/29 01:51:11;;;;;;;7.38;1.50;;;;;;;-144.43;100.00;67396.00;5092031;28;20024;-63
2022/08/29 01:53:39;;;;;;;15.98;1.98;;;;;;;-144.43;100.00;67396.00;5092067;28;20501;-63
2022/08/29 01:56:18;;;;;;;19.33;3.25;;;;;;;-144.43;100.00;67396.00;5092290;28;20036;-64
2022/08/29 01:58:47;;;;;;;19.43;3.40;;;;;;;-144.43;100.00;67396.00;5092148;28;20032;-62
2022/08/29 02:01:18;;;;;;;16.95;3.08;;;;;;;-144.43;100.00;67396.00;5091630;28;20031;-60
2022/08/29 02:03:44;;;;;;;18.67;3.70;;;;;;;-144.43;100.00;67396.00;5092004;28;20033;-63
2022/08/29 02:06:12;;;;;;;20.38;3.20;;;;;;;-144.43;100.00;67396.00;5092083;28;20040;-64
2022/08/29 02:08:41;;;;;;;16.98;2.95;;;;;;;-144.43;100.00;67396.00;5092345;28;20085;-63
2022/08/29 02:11:10;;;;;;;22.10;3.40;;;;;;;-144.43;100.00;67396.00;5093574;28;20123;-64
2022/08/29 02:13:39;;;;;;;15.68;3.13;;;;;;;-144.43;100.00;67396.00;5095526;28;20031;-64
2022/08/29 02:16:06;;;;;;;15.65;2.75;;;;;;;-144.43;100.00;67396.00;5095525;28;20190;-64
2022/08/29 02:18:33;;;;;;;27.33;3.85;;;;;;;-144.43;100.00;67396.00;5095630;28;20032;-65
2022/08/29 02:21:01;;;;;;;16.88;3.30;;;;;;;-144.43;100.00;67396.00;5095655;28;20032;-64
2022/08/29 02:23:28;;;;;;;16.20;2.85;;;;;;;-144.43;100.00;67396.00;5095333;28;20109;-64
2022/08/29 02:25:55;;;;;;;19.90;3.45;;;;;;;-144.43;100.00;67396.00;5095617;28;20028;-63
2022/08/29 02:28:22;;;;;;;14.63;3.00;;;;;;;-144.43;100.00;67396.00;5095381;28;20032;-63
2022/08/29 02:30:55;;;;;;;15.00;2.67;;;;;;;-144.43;100.00;67396.00;5095594;28;20035;-64
2022/08/29 02:33:22;;;;;;;13.20;1.92;;;;;;;-144.43;100.00;67396.00;5095361;28;20554;-64
2022/08/29 02:35:48;;;;;;;9.98;2.38;;;;;;;-144.43;100.00;67396.00;5095323;28;20036;-64
2022/08/29 02:38:16;;;;;;;17.58;2.40;;;;;;;-144.43;100.00;67396.00;5095309;28;20036;-63
2022/08/29 02:40:44;;;;;;;42.25;3.53;;;;;;;-144.43;100.00;67396.00;5095017;28;20039;-63
2022/08/29 02:43:11;;;;;;;9.82;2.08;;;;;;;-144.43;100.00;67396.00;5094905;28;20040;-65
2022/08/29 02:45:39;;;;;;;11.50;2.03;;;;;;;-144.43;100.00;67396.00;5095469;28;20054;-64
2022/08/29 02:48:07;;;;;;;14.38;2.05;;;;;;;-144.43;100.00;67396.00;5094809;28;20028;-64
2022/08/29 02:50:34;;;;;;;11.95;2.20;;;;;;;-144.43;100.00;67396.00;5094628;28;20028;-65
2022/08/29 02:53:02;;;;;;;11.30;1.65;;;;;;;-144.43;100.00;67396.00;5106727;28;20040;-68
2022/08/29 02:55:29;;;;;;;11.35;2.10;;;;;;;-144.43;100.00;67396.00;5115083;28;20024;-63
2022/08/29 02:57:57;;;;;;;10.90;2.20;;;;;;;-144.43;100.00;67396.00;5095863;28;20069;-65
2022/08/29 03:00:26;;;;;;;10.15;2.08;;;;;;;-144.43;100.00;67396.00;5090869;28;20075;-68
2022/08/29 03:02:55;;;;;;;14.75;2.03;;;;;;;-144.43;100.00;67396.00;5074576;28;20540;-63
2022/08/29 03:05:26;;;;;;;8.30;2.25;;;;;;;-144.43;100.00;67396.00;5074171;28;20025;-66
2022/08/29 03:07:55;;;;;;;11.27;2.30;;;;;;;-144.43;100.00;67396.00;5074753;28;20445;-64
2022/08/29 03:10:22;;;;;;;7.00;1.63;;;;;;;-144.43;100.00;67396.00;5056014;28;20410;-60
2022/08/29 03:12:49;;;;;;;10.90;1.95;;;;;;;-144.43;100.00;67396.00;5093942;28;20487;-64
2022/08/29 03:15:17;;;;;;;8.43;2.10;;;;;;;-144.43;100.00;67396.00;5094082;28;20016;-65
2022/08/29 03:17:45;;;;;;;7.43;1.90;;;;;;;-144.43;100.00;67396.00;5094073;28;20036;-64
2022/08/29 03:20:14;;;;;;;12.70;2.30;;;;;;;-144.43;100.00;67396.00;5093856;28;20529;-65
2022/08/29 03:22:41;;;;;;;9.10;1.92;;;;;;;-144.43;100.00;67396.00;5105364;28;20040;-66
2022/08/29 03:25:09;;;;;;;10.00;2.03;;;;;;;-144.43;100.00;67396.00;5080033;28;20540;-66
2022/08/29 03:27:35;;;;;;;10.07;2.15;;;;;;;-144.43;100.00;67396.00;5084199;28;20072;-65
2022/08/29 03:30:04;;;;;;;9.32;1.98;;;;;;;-144.43;100.00;67396.00;5086105;28;20028;-63
2022/08/29 03:32:31;;;;;;;15.27;2.50;;;;;;;-144.43;100.00;67396.00;5082585;28;20033;-61
2022/08/29 03:34:58;;;;;;;9.52;2.00;;;;;;;-144.43;100.00;67396.00;5078450;28;20098;-63
2022/08/29 03:37:26;;;;;;;11.32;2.40;;;;;;;-144.43;100.00;67396.00;5082298;28;20093;-65
2022/08/29 03:39:53;;;;;;;9.15;3.63;;;;;;;-144.43;100.00;67396.00;5083312;28;20036;-60
2022/08/29 03:42:20;;;;;;;15.18;4.05;;;;;;;-144.43;100.00;67396.00;5085455;28;20028;-65
2022/08/29 03:44:47;;;;;;;8.98;4.00;;;;;;;-144.43;100.00;67396.00;5086359;28;20042;-68
2022/08/29 03:47:14;;;;;;;11.07;3.10;;;;;;;-144.43;100.00;67396.00;5079067;28;20415;-65
2022/08/29 03:49:41;;;;;;;8.00;2.53;;;;;;;-144.43;100.00;67396.00;5075646;28;20124;-63
2022/08/29 03:52:08;;;;;;;12.60;2.28;;;;;;;-144.43;100.00;67396.00;5079645;28;20107;-64
2022/08/29 03:54:36;;;;;;;10.90;2.38;;;;;;;-144.43;100.00;67396.00;5075790;28;20098;-61
2022/08/29 03:57:08;;;;;;;11.00;2.50;;;;;;;-144.43;100.00;67396.00;5078528;28;20031;-63
2022/08/29 03:59:35;;;;;;;10.18;2.72;;;;;;;-144.43;100.00;67396.00;5077286;28;20048;-63
2022/08/29 04:02:02;;;;;;;11.40;2.55;;;;;;;-144.43;100.00;67396.00;5079205;28;20024;-64
2022/08/29 04:07:16;;;;;;;9.18;2.72;;;;;;;-144.43;100.00;67396.00;5087359;28;20505;-63
2022/08/29 04:09:43;;;;;;;9.90;2.38;;;;;;;-144.43;100.00;67396.00;5088177;28;20036;-62
2022/08/29 04:12:12;;;;;;;10.30;2.38;;;;;;;-144.43;100.00;67396.00;5089337;28;20020;-62
2022/08/29 04:14:39;;;;;;;8.05;2.35;;;;;;;-144.43;100.00;67396.00;5080547;28;20041;-63
2022/08/29 04:17:09;;;;;;;10.52;2.60;;;;;;;-144.43;100.00;67396.00;5090431;28;20039;-63
2022/08/29 04:19:36;;;;;;;11.80;2.80;;;;;;;-144.43;100.00;67396.00;5083370;28;20037;-61
2022/08/29 04:22:04;;;;;;;10.32;2.25;;;;;;;-144.43;100.00;67396.00;5086297;28;20016;-63
2022/08/29 04:24:32;;;;;;;12.70;2.67;;;;;;;-144.43;100.00;67396.00;5082658;28;20037;-62
2022/08/29 04:26:59;;;;;;;9.25;2.80;;;;;;;-144.43;100.00;67396.00;5088480;28;20024;-62
2022/08/29 04:29:26;;;;;;;13.07;2.80;;;;;;;-144.43;100.00;67396.00;5081173;28;20067;-67
2022/08/29 04:31:53;;;;;;;15.50;3.00;;;;;;;-144.43;100.00;67396.00;5087555;28;20516;-65
2022/08/29 04:34:20;;;;;;;10.73;2.75;;;;;;;-144.43;100.00;67396.00;5089642;27;20032;-63
2022/08/29 04:36:47;;;;;;;8.98;3.00;;;;;;;-144.43;100.00;67396.00;5085119;28;20067;-63
2022/08/29 04:39:15;;;;;;;8.93;2.58;;;;;;;-144.43;100.00;67396.00;5077532;28;20044;-65
2022/08/29 04:41:42;;;;;;;9.32;2.88;;;;;;;-144.43;100.00;67396.00;5083613;28;20032;-64
2022/08/29 04:44:11;;;;;;;10.52;3.00;;;;;;;-144.43;100.00;67396.00;5083031;28;20054;-64
2022/08/29 04:46:38;;;;;;;10.55;3.03;;;;;;;-144.43;100.00;67396.00;5086344;28;20082;-64
2022/08/29 04:49:05;;;;;;;15.15;3.00;;;;;;;-144.43;100.00;67396.00;5080368;28;20074;-65
2022/08/29 04:51:34;;;;;;;11.93;3.10;;;;;;;-144.43;100.00;67396.00;5085731;28;20038;-64
2022/08/29 04:54:02;;;;;;;9.50;3.15;;;;;;;-144.43;100.00;67396.00;5087595;28;20032;-65
2022/08/29 04:56:29;;;;;;;11.00;3.28;;;;;;;-144.43;100.00;67396.00;5085790;28;20028;-65
2022/08/29 04:58:55;;;;;;;10.50;3.33;;;;;;;-144.43;100.00;67396.00;5081723;28;20019;-65
2022/08/29 05:01:26;;;;;;;16.08;4.25;;;;;;;-144.43;100.00;67396.00;5090903;28;20020;-66
2022/08/29 05:03:56;;;;;;;17.48;4.45;;;;;;;-144.43;100.00;67396.00;5083612;28;20031;-65
2022/08/29 05:06:24;;;;;;;15.43;3.47;;;;;;;-144.43;100.00;67396.00;5077594;28;20044;-65
2022/08/29 05:08:53;;;;;;;9.95;3.40;;;;;;;-144.43;100.00;67396.00;5081376;28;20044;-63
2022/08/29 05:11:20;;;;;;;14.35;3.60;;;;;;;-144.43;100.00;67396.00;5080329;28;20458;-65
2022/08/29 05:13:48;;;;;;;11.20;3.50;;;;;;;-144.43;100.00;67396.00;5081545;28;20180;-63
2022/08/29 05:16:16;;;;;;;12.95;3.65;;;;;;;-144.43;100.00;67396.00;5082408;28;20024;-63
2022/08/29 05:18:45;;;;;;;14.15;3.60;;;;;;;-144.43;100.00;67396.00;5090133;28;20544;-63
2022/08/29 05:21:33;;;;;;;10.10;3.40;;;;;;;-144.43;100.00;67396.00;5074569;28;20119;-65
2022/08/29 05:24:01;;;;;;;9.63;3.47;;;;;;;-144.43;100.00;67396.00;5079345;28;20085;-64
2022/08/29 05:26:35;;;;;;;9.98;3.65;;;;;;;-144.43;100.00;67396.00;5080564;28;20471;-63
2022/08/29 05:29:05;;;;;;;11.23;3.42;;;;;;;-144.43;100.00;67396.00;5079313;28;20094;-63
2022/08/29 05:31:32;;;;;;;14.27;3.70;;;;;;;-144.43;100.00;67396.00;5085017;28;20062;-64
2022/08/29 05:33:59;;;;;;;10.57;3.40;;;;;;;-144.43;100.00;67396.00;5083270;28;20023;-63
2022/08/29 05:36:26;;;;;;;16.10;4.00;;;;;;;-144.43;100.00;67396.00;5083403;28;20032;-63
2022/08/29 05:38:53;;;;;;;13.07;3.85;;;;;;;-144.43;100.00;67396.00;5083257;28;20466;-65
2022/08/29 05:41:20;;;;;;;12.27;3.78;;;;;;;-144.43;100.00;67396.00;5081629;28;19962;-64
2022/08/29 05:43:46;;;;;;;18.98;3.80;;;;;;;-144.43;100.00;67396.00;5078571;28;20043;-62
2022/08/29 05:46:13;;;;;;;13.45;3.53;;;;;;;-144.43;100.00;67396.00;5084016;28;20032;-61
2022/08/29 05:48:41;;;;;;;11.50;3.50;;;;;;;-144.43;100.00;67396.00;5085118;28;20055;-62
2022/08/29 05:51:15;;;;;;;11.27;3.50;;;;;;;-144.43;100.00;67396.00;5085419;28;20106;-63
2022/08/29 05:53:42;;;;;;;;;;;;;;;-144.43;100.00;67396.00;5084493;28;20074;-59
2022/08/29 05:56:08;;;;;;;15.63;3.58;;;;;;;-144.43;100.00;67396.00;5083473;28;19926;-63
2022/08/29 05:58:35;;;;;;;10.93;3.38;;;;;;;-144.43;100.00;67396.00;5085823;28;20056;-63
2022/08/29 06:01:02;;;;;;;13.38;3.50;;;;;;;-144.43;100.00;67396.00;5090544;28;20034;-65
2022/08/29 06:03:28;;;;;;;10.13;3.47;;;;;;;-144.43;100.00;67396.00;5080174;28;20140;-63
2022/08/29 06:05:55;;;;;;;14.15;3.50;;;;;;;-144.43;100.00;67396.00;5078414;28;20119;-63
2022/08/29 06:08:22;;;;;;;16.80;4.15;;;;;;;-144.43;100.00;67396.00;5085473;28;20878;-64
2022/08/29 06:10:49;;;;;;;16.67;4.20;;;;;;;-144.43;100.00;67396.00;5086916;28;20037;-62
2022/08/29 06:13:15;;;;;;;12.93;3.35;;;;;;;-144.43;100.00;67396.00;5084112;28;20025;-65
2022/08/29 06:15:44;;;;;;;29.08;4.20;;;;;;;-144.43;100.00;67396.00;5083501;28;20039;-64
2022/08/29 06:18:12;;;;;;;13.45;3.83;;;;;;;-144.43;100.00;67396.00;5083065;28;20549;-63
2022/08/29 06:20:39;;;;;;;23.38;4.32;;;;;;;-144.43;100.00;67396.00;5081506;28;20075;-63
2022/08/29 06:23:06;;;;;;;18.95;4.10;;;;;;;-144.43;100.00;67396.00;5089444;28;20024;-63
2022/08/29 06:25:33;;;;;;;16.77;3.80;;;;;;;-144.43;100.00;67396.00;5085676;28;20029;-63
2022/08/29 06:28:01;;;;;;;29.52;4.10;;;;;;;-144.43;100.00;67396.00;5086646;28;20032;-63
2022/08/29 06:30:31;;;;;;;14.55;3.80;;;;;;;-144.43;100.00;67396.00;5086043;28;20035;-64
2022/08/29 06:32:59;;;;;;;14.27;3.85;;;;;;;-144.43;100.00;67396.00;5081875;28;20368;-63
2022/08/29 06:35:26;;;;;;;15.50;3.97;;;;;;;-144.43;100.00;67396.00;5086751;28;20375;-62
2022/08/29 06:37:53;;;;;;;13.95;3.90;;;;;;;-144.43;100.00;67396.00;5084416;28;20106;-64
2022/08/29 06:40:20;;;;;;;11.30;3.85;;;;;;;-144.43;100.00;67396.00;5087176;28;20043;-63
2022/08/29 06:42:46;;;;;;;17.98;3.95;;;;;;;-144.43;100.00;67396.00;5091600;28;20120;-63
2022/08/29 06:45:13;;;;;;;11.27;3.72;;;;;;;-144.43;100.00;67396.00;5094479;28;20028;-67
2022/08/29 06:47:40;;;;;;;18.98;4.18;;;;;;;-144.43;100.00;67396.00;5093824;28;20034;-64
2022/08/29 06:50:07;;;;;;;13.52;3.83;;;;;;;-144.43;100.00;67396.00;5094882;28;20036;-65
2022/08/29 06:52:34;;;;;;;13.27;3.72;;;;;;;-144.43;100.00;67396.00;5099405;28;20496;-65
2022/08/29 06:55:01;;;;;;;15.82;3.65;;;;;;;-144.43;100.00;67396.00;5115136;28;20414;-64
2022/08/29 06:57:28;;;;;;;15.73;4.18;;;;;;;-144.43;100.00;67396.00;5114357;28;20027;-63
2022/08/29 06:59:55;;;;;;;10.45;3.75;;;;;;;-144.43;100.00;67396.00;5107325;28;20093;-63
2022/08/29 07:02:21;;;;;;;16.77;4.13;;;;;;;-144.43;100.00;67396.00;5094876;28;20078;-63
2022/08/29 07:04:48;;;;;;;17.13;4.60;;;;;;;-144.43;100.00;67396.00;5094561;28;20032;-63
2022/08/29 07:07:15;;;;;;;13.38;4.30;;;;;;;-144.43;100.00;67396.00;5094327;28;20371;-62
2022/08/29 07:09:43;;;;;;;15.63;4.65;;;;;;;-144.43;100.00;67396.00;5094595;28;20061;-63
2022/08/29 07:12:09;;;;;;;15.45;4.35;;;;;;;-144.43;100.00;67396.00;5094612;28;20024;-63
2022/08/29 07:14:36;;;;;;;13.02;4.68;;;;;;;-144.43;100.00;67396.00;5091854;28;20032;-63
2022/08/29 07:17:03;;;;;;;16.55;4.75;;;;;;;-144.43;100.00;67396.00;5085336;28;20032;-64
2022/08/29 07:19:30;;;;;;;19.70;5.03;;;;;;;-144.43;100.00;67396.00;5073644;28;20028;-64
2022/08/29 07:21:58;;;;;;;21.52;5.13;;;;;;;-144.43;100.00;67396.00;5089111;28;20020;-63
2022/08/29 07:24:26;;;;;;;18.65;4.63;;;;;;;-144.43;100.00;67396.00;5093445;28;20032;-62
2022/08/29 07:26:52;;;;;;;18.90;4.93;;;;;;;-144.43;100.00;67396.00;5093561;28;20478;-64
2022/08/29 07:29:21;;;;;;;16.35;4.18;;;;;;;-144.43;100.00;67396.00;5092682;28;20072;-62
2022/08/29 07:31:48;;;;;;;18.90;4.65;;;;;;;-144.43;100.00;67396.00;5092101;28;20487;-65
2022/08/29 07:34:15;;;;;;;16.33;4.60;;;;;;;-144.43;100.00;67396.00;5093085;28;20043;-63
2022/08/29 07:36:42;;;;;;;17.08;4.95;;;;;;;-144.43;100.00;67396.00;5093709;28;20020;-62
2022/08/29 07:39:12;;;;;;;17.75;4.43;;;;;;;-144.43;100.00;67396.00;5093614;28;20028;-63
2022/08/29 07:41:41;;;;;;;24.00;4.97;;;;;;;-144.43;100.00;67396.00;5093801;28;20040;-65
2022/08/29 07:44:09;;;;;;;15.35;4.90;;;;;;;-144.43;100.00;67396.00;5094118;28;20358;-64
2022/08/29 07:46:37;;;;;;;16.05;5.20;;;;;;;-144.43;100.00;67396.00;5094107;28;20417;-65
2022/08/29 07:49:05;;;;;;;16.02;4.70;;;;;;;-144.43;100.00;67396.00;5093864;28;20024;-63
2022/08/29 07:51:34;;;;;;;16.85;4.75;;;;;;;-144.43;100.00;67396.00;5094185;28;20074;-62
2022/08/29 07:54:01;;;;;;;32.38;6.10;;;;;;;-144.43;100.00;67396.00;5093696;28;20028;-65
2022/08/29 07:56:32;;;;;;;16.95;4.85;;;;;;;-144.43;100.00;67396.00;5093875;28;20028;-65
2022/08/29 07:58:59;;;;;;;18.50;4.72;;;;;;;-144.43;100.00;67396.00;5093715;28;20044;-63
2022/08/29 08:01:26;;;;;;;14.75;4.90;;;;;;;-144.43;100.00;67396.00;5084889;28;20423;-64
2022/08/29 08:03:54;;;;;;;16.38;5.20;;;;;;;-144.43;100.00;67396.00;5114069;28;20115;-64
2022/08/29 08:06:23;;;;;;;15.50;5.68;;;;;;;-144.43;100.00;67396.00;5113739;28;20100;-64
2022/08/29 08:08:50;;;;;;;16.95;6.10;;;;;;;-144.43;100.00;67396.00;5112832;28;20040;-63
2022/08/29 08:11:20;;;;;;;18.65;6.07;;;;;;;-144.43;100.00;67396.00;5113724;28;20027;-62
2022/08/29 08:13:47;;;;;;;15.05;4.80;;;;;;;-144.43;100.00;67396.00;5113987;28;20118;-64
2022/08/29 08:16:17;;;;;;;16.00;4.80;;;;;;;-144.43;100.00;67396.00;5113741;28;20019;-65
2022/08/29 08:18:44;;;;;;;14.95;5.00;;;;;;;-144.43;100.00;67396.00;5113747;28;20040;-62
2022/08/29 08:21:12;;;;;;;14.10;4.57;;;;;;;-144.43;100.00;67396.00;5113485;28;20024;-62
2022/08/29 08:23:39;;;;;;;14.70;4.15;;;;;;;-144.43;100.00;67396.00;5113701;28;20036;-63
2022/08/29 08:26:07;;;;;;;14.60;4.18;;;;;;;-144.43;100.00;67396.00;5113551;28;20050;-66
2022/08/29 08:28:35;;;;;;;15.32;4.10;;;;;;;-144.43;100.00;67396.00;5113574;28;20032;-64
2022/08/29 08:31:05;;;;;;;14.48;4.55;;;;;;;-144.43;100.00;67396.00;5095760;28;20386;-63
2022/08/29 08:33:33;;;;;;;16.80;4.65;;;;;;;-144.43;100.00;67396.00;5092665;28;20046;-61
2022/08/29 08:36:00;;;;;;;15.23;4.78;;;;;;;-144.43;100.00;67396.00;5101942;28;20028;-64
2022/08/29 08:38:26;;;;;;;14.30;4.88;;;;;;;-144.43;100.00;67396.00;5093134;28;20043;-64
2022/08/29 08:41:12;;;;;;;16.13;4.25;;;;;;;-144.43;100.00;67396.00;5092818;28;20111;-64
2022/08/29 08:43:53;;;;;;;15.80;4.35;;;;;;;-144.43;100.00;67396.00;5092966;28;20547;-64
2022/08/29 08:46:28;;;;;;;15.45;4.68;;;;;;;-144.43;100.00;67396.00;5093074;28;20048;-63
2022/08/29 08:49:00;;;;;;;17.85;4.72;;;;;;;-144.43;100.00;67396.00;5092875;28;20035;-64
2022/08/29 08:51:33;;;;;;;19.20;4.97;;;;;;;-144.43;100.00;67396.00;5092760;28;20040;-64
2022/08/29 08:54:06;;;;;;;12.18;3.70;;;;;;;-144.43;100.00;67396.00;5092904;28;20121;-64
2022/08/29 08:56:37;;;;;;;17.67;4.53;;;;;;;-144.43;100.00;67396.00;5093270;28;20489;-62
2022/08/29 08:59:28;;;;;;;13.73;4.28;;;;;;;-144.43;100.00;67396.00;5093113;28;20040;-63
2022/08/29 09:01:55;;;;;;;17.70;5.03;;;;;;;-144.43;100.00;67396.00;5093030;28;20036;-64
2022/08/29 09:04:55;;;;;;;13.15;4.28;;;;;;;-144.43;100.00;67396.00;5092900;28;20507;-64
2022/08/29 09:08:05;;;;;;;12.55;4.32;;;;;;;-144.43;100.00;67396.00;5092450;28;20050;-63
2022/08/29 09:10:52;;;;;;;17.38;4.93;;;;;;;-144.43;100.00;67396.00;5092689;28;20040;-62
2022/08/29 09:13:28;;;;;;;13.10;4.18;;;;;;;-144.43;100.00;67396.00;5092755;28;20109;-64
2022/08/29 09:15:58;;;;;;;15.48;4.43;;;;;;;-144.43;100.00;67396.00;5092650;28;20035;-64
2022/08/29 09:18:37;;;;;;;17.70;4.78;;;;;;;-144.43;100.00;67396.00;5092978;28;20078;-63
2022/08/29 09:21:15;;;;;;;15.45;4.70;;;;;;;-144.43;100.00;67396.00;5096252;28;20039;-64
2022/08/29 09:23:44;;;;;;;16.23;4.43;;;;;;;-144.43;100.00;67396.00;5096839;28;20111;-64
2022/08/29 09:26:15;;;;;;;13.70;4.82;;;;;;;-144.43;100.00;67396.00;5096006;28;20023;-64
2022/08/29 09:28:42;;;;;;;16.00;5.50;;;;;;;-144.43;100.00;67396.00;5096575;28;20032;-63
2022/08/29 09:31:32;;;;;;;17.42;5.35;;;;;;;-144.43;100.00;67396.00;5095498;28;20718;-62
2022/08/29 09:34:07;;;;;;;15.50;5.03;;;;;;;-144.43;100.00;67396.00;5096196;28;20028;-64
2022/08/29 09:36:47;;;;;;;16.02;5.00;;;;;;;-144.43;100.00;67396.00;5105276;28;20032;-62
2022/08/29 09:39:18;;;;;;;17.45;6.32;;;;;;;-144.43;100.00;67396.00;5116648;28;20046;-64
2022/08/29 09:41:52;;;;;;;17.40;5.90;;;;;;;-144.43;100.00;67396.00;5116846;28;20043;-64
2022/08/29 09:44:32;;;;;;;14.73;4.65;;;;;;;-144.43;100.00;67396.00;5116899;28;20031;-64
2022/08/29 09:47:23;;;;;;;18.13;5.13;;;;;;;-144.43;100.00;67396.00;5116675;28;20072;-63
2022/08/29 09:50:07;;;;;;;15.88;4.40;;;;;;;-144.43;100.00;67396.00;5106877;28;20067;-62
2022/08/29 09:52:38;;;;;;;16.70;4.47;;;;;;;-144.43;100.00;67396.00;5116614;28;20477;-63
2022/08/29 09:55:17;;;;;;;13.60;4.60;;;;;;;-144.43;100.00;67396.00;5116575;28;20428;-65
2022/08/29 09:57:51;;;;;;;16.50;4.50;;;;;;;-144.43;100.00;67396.00;5116355;28;20059;-63
2022/08/29 10:00:25;;;;;;;14.95;4.40;;;;;;;-144.43;100.00;67396.00;5105156;27;20036;-63
2022/08/29 10:02:55;;;;;;;14.90;4.95;;;;;;;-144.43;100.00;67396.00;5096065;28;20039;-63
2022/08/29 10:05:44;;;;;;;15.93;4.70;;;;;;;-144.43;100.00;67396.00;5095591;28;20089;-63
2022/08/29 10:08:28;;;;;;;15.65;4.38;;;;;;;-144.43;100.00;67396.00;5096138;28;20028;-65
2022/08/29 10:10:58;;;;;;;14.75;4.78;;;;;;;-144.43;100.00;67396.00;5095978;28;20035;-64
2022/08/29 10:13:42;;;;;;;18.33;5.22;;;;;;;-144.43;100.00;67396.00;5095787;28;20039;-63
2022/08/29 10:16:28;;;;;;;15.90;4.60;;;;;;;-144.43;100.00;67396.00;5095876;28;20035;-63
2022/08/29 10:19:17;;;;;;;14.90;4.95;;;;;;;-144.43;100.00;67396.00;5095650;28;20425;-64
2022/08/29 10:21:47;;;;;;;14.27;4.65;;;;;;;-144.43;100.00;67396.00;5096035;28;20051;-65
2022/08/29 10:24:31;;;;;;;18.55;4.88;;;;;;;-144.43;100.00;67396.00;5095581;28;20028;-63
2022/08/29 10:27:14;;;;;;;19.58;4.85;;;;;;;-144.43;100.00;67396.00;5095735;28;20376;-64
2022/08/29 10:30:26;;;;;;;17.15;4.90;;;;;;;-144.43;100.00;67396.00;5095222;28;20036;-63
2022/08/29 10:33:14;;;;;;;18.20;5.18;;;;;;;-144.43;100.00;67396.00;5052383;28;20128;-64
2022/08/29 10:35:50;;;;;;;15.02;4.57;;;;;;;-144.43;100.00;67396.00;5093106;28;20509;-65
2022/08/29 10:38:38;;;;;;;13.68;4.55;;;;;;;-144.43;100.00;67396.00;5095502;28;20044;-64
2022/08/29 10:41:17;;;;;;;15.57;4.97;;;;;;;-144.43;100.00;67396.00;5095329;28;20032;-64
2022/08/29 10:44:10;;;;;;;15.32;4.82;;;;;;;-144.43;100.00;67396.00;5095431;28;20032;-62
2022/08/29 10:47:10;;;;;;;13.98;5.25;;;;;;;-144.43;100.00;67396.00;5095260;28;20063;-62
2022/08/29 10:49:50;;;;;;;16.95;5.55;;;;;;;-144.43;100.00;67396.00;5095162;28;20044;-62
2022/08/29 10:52:29;;;;;;;19.73;5.60;;;;;;;-144.43;100.00;67396.00;5095232;28;20035;-63
2022/08/29 10:55:15;;;;;;;15.40;5.53;;;;;;;-144.43;100.00;67396.00;5095111;28;20040;-63
2022/08/29 10:58:02;;;;;;;17.00;4.97;;;;;;;-144.43;100.00;67396.00;5095183;28;20406;-63
2022/08/29 11:00:41;;;;;;;15.27;4.95;;;;;;;-144.43;100.00;67396.00;5094734;28;20050;-64
2022/08/29 11:03:38;;;;;;;15.20;5.15;;;;;;;-144.43;100.00;67396.00;5094979;28;20109;-62
2022/08/29 11:06:31;;;;;;;18.08;5.20;;;;;;;-144.43;100.00;67396.00;5094720;28;20044;-62
2022/08/29 11:09:05;;;;;;;16.65;5.43;;;;;;;-144.43;100.00;67396.00;5094689;28;20059;-62
2022/08/29 11:11:35;;;;;;;14.95;5.50;;;;;;;-144.43;100.00;67396.00;5094732;28;20044;-64
2022/08/29 11:14:08;;;;;;;19.33;6.20;;;;;;;-144.43;100.00;67396.00;5094742;28;20035;-63
2022/08/29 11:16:46;;;;;;;18.73;6.07;;;;;;;-144.43;100.00;67396.00;5094891;28;20150;-62
2022/08/29 11:19:40;;;;;;;14.73;5.30;;;;;;;-144.43;100.00;67396.00;5094541;28;20107;-63
2022/08/29 11:22:28;;;;;;;14.98;5.85;;;;;;;-144.43;100.00;67396.00;5073879;28;20189;-64